Terminal Aerodrome Forecast
Issued by NWS Grand Forks, ND

Home | Current Version | Previous Version | Text Only | Print | Product List | Glossary Off
Versions: 1 2 3 4 5 6 7 8 9 10 11 12 13 14 15

000
FTUS43 KFGF 160522
TAFFAR
TAF
KFAR 160522Z 1606/1706 34008KT P6SM BKN011 OVC021
     FM160900 07004KT P6SM OVC021
     FM161200 12008KT P6SM OVC030
     FM161500 13017G25KT P6SM OVC060
     FM161900 14022G31KT P6SM BKN130=

USA.gov is the U.S. government's official web portal to all federal, state and local government web resources and services.